Nortonville, Kentucky
Current Conditions -  °F | °C
As of 12:15 PM on Monday 22 Dec 2014 (Local Time) from K2I0 Reporting Station
Overcast Overcast  
Wind Chill: 54°   Ceiling: 2100
Heat Index: 54°   Visibility: 10mi
Dew Point: 47°   Wind: 8mph
Humidity: 78%   Direction: 160°SSE
Pressure: 29.79"   Gusts: NA
Location:  37.19°N, 87.45°W
Report Text: K2I0 221815Z AUTO 16007KT 10SM OVC021 12/08 A2979 RMK AO2 T01200082
Loading
Personal Weather Stations






























Interactive Weather Map New forecast layout! Learn more

10-Day Weather Forecast

Advertisements
Track Severe Weather on mobile